createdAt,value
2018-11-14T00:00:32.476Z,93.50
2018-11-14T00:03:01.785Z,94.40
2018-11-14T00:05:30.205Z,95.40
2018-11-14T00:07:58.092Z,95.60
2018-11-14T00:10:25.967Z,95.50
2018-11-14T00:12:53.676Z,95.30
2018-11-14T00:15:22.707Z,94.90
2018-11-14T00:17:50.915Z,94.80
2018-11-14T00:20:18.763Z,94.60
2018-11-14T00:22:47.756Z,94.60
2018-11-14T00:25:15.738Z,94.70
2018-11-14T00:27:43.457Z,94.90
2018-11-14T00:30:14.454Z,95.00
2018-11-14T00:32:42.654Z,95.10
2018-11-14T00:35:11.899Z,95.20
2018-11-14T00:37:40.059Z,95.00
2018-11-14T00:40:09.903Z,94.70
2018-11-14T00:42:38.153Z,94.70
2018-11-14T00:45:07.863Z,94.90
2018-11-14T00:47:35.556Z,94.60
2018-11-14T00:50:03.583Z,93.90
2018-11-14T00:52:31.435Z,93.30
2018-11-14T00:54:59.348Z,93.10
2018-11-14T00:57:27.228Z,92.80
2018-11-14T00:59:55.289Z,92.70
2018-11-14T01:02:23.026Z,92.40
2018-11-14T01:04:50.978Z,92.20
2018-11-14T01:07:18.787Z,92.30
2018-11-14T01:09:46.647Z,92.10
2018-11-14T01:12:14.765Z,92.00
2018-11-14T01:14:43.394Z,92.00
2018-11-14T01:17:11.268Z,92.20
2018-11-14T01:19:39.054Z,92.40
2018-11-14T01:22:06.998Z,92.70
2018-11-14T01:24:34.666Z,92.80
2018-11-14T01:27:02.609Z,93.10
2018-11-14T01:29:30.630Z,93.30
2018-11-14T01:31:58.680Z,93.60
2018-11-14T01:34:26.464Z,93.90
2018-11-14T01:36:54.279Z,94.10
2018-11-14T01:39:22.091Z,94.30
2018-11-14T01:41:49.852Z,94.30
2018-11-14T01:44:17.602Z,94.20
2018-11-14T01:46:45.459Z,93.90
2018-11-14T01:49:13.212Z,93.80
2018-11-14T01:51:40.971Z,93.90
2018-11-14T01:54:08.789Z,93.80
2018-11-14T01:56:36.438Z,93.60
2018-11-14T01:59:04.322Z,93.60
2018-11-14T02:01:32.041Z,93.60
2018-11-14T02:03:59.875Z,93.50
2018-11-14T02:06:27.805Z,93.50
2018-11-14T02:08:55.873Z,93.20
2018-11-14T02:11:24.861Z,93.00
2018-11-14T02:13:53.033Z,92.70
2018-11-14T02:16:20.867Z,92.50
2018-11-14T02:18:48.611Z,92.60
2018-11-14T02:21:16.832Z,93.40
2018-11-14T02:23:44.555Z,94.00
2018-11-14T02:26:12.335Z,94.40
2018-11-14T02:28:40.304Z,94.80
2018-11-14T02:31:08.517Z,94.90
2018-11-14T02:33:36.220Z,95.00
2018-11-14T02:36:04.969Z,94.80
2018-11-14T02:38:32.763Z,94.80
2018-11-14T02:41:00.681Z,94.80
2018-11-14T02:43:28.586Z,94.80
2018-11-14T02:45:57.611Z,94.90
2018-11-14T02:48:26.292Z,95.00
2018-11-14T02:51:05.382Z,94.90
2018-11-14T02:53:33.128Z,94.70
2018-11-14T02:56:05.247Z,94.40
2018-11-14T02:58:32.898Z,94.20
2018-11-14T03:01:01.880Z,94.10
2018-11-14T03:03:30.006Z,93.90
2018-11-14T03:05:57.912Z,94.00
2018-11-14T03:08:25.596Z,93.90
2018-11-14T03:10:53.503Z,93.90
2018-11-14T03:13:21.418Z,93.70
2018-11-14T03:15:49.149Z,93.70
2018-11-14T03:18:16.831Z,93.80
2018-11-14T03:20:44.524Z,94.20
2018-11-14T03:23:12.516Z,94.70
2018-11-14T03:25:40.469Z,95.00
2018-11-14T03:28:08.304Z,94.70
2018-11-14T03:30:36.126Z,94.40
2018-11-14T03:33:04.032Z,94.40
2018-11-14T03:36:35.145Z,94.30
2018-11-14T03:39:03.746Z,94.20
2018-11-14T03:41:31.769Z,93.90
2018-11-14T03:43:59.534Z,93.70
2018-11-14T03:46:27.476Z,93.40
2018-11-14T03:48:55.481Z,92.60
2018-11-14T03:51:23.373Z,92.20
2018-11-14T03:53:51.065Z,92.30
2018-11-14T03:56:18.965Z,92.10
2018-11-14T03:58:46.814Z,92.10
2018-11-14T04:01:14.569Z,92.00
2018-11-14T04:03:43.374Z,92.20
2018-11-14T04:06:11.066Z,92.10
2018-11-14T04:08:38.768Z,92.20
2018-11-14T04:11:06.763Z,92.20
2018-11-14T04:13:34.437Z,92.60
2018-11-14T04:16:02.368Z,92.90
2018-11-14T04:18:30.251Z,93.00
2018-11-14T04:20:57.995Z,93.40
2018-11-14T04:23:25.712Z,93.70
2018-11-14T04:25:53.539Z,93.70
2018-11-14T04:28:21.176Z,93.80
2018-11-14T04:30:49.248Z,94.00
2018-11-14T04:33:16.948Z,94.10
2018-11-14T04:35:44.911Z,94.20
2018-11-14T04:38:12.883Z,94.30
2018-11-14T04:40:40.695Z,94.00
2018-11-14T04:43:08.444Z,93.70
2018-11-14T04:45:36.257Z,93.60
2018-11-14T04:48:04.232Z,93.40
2018-11-14T04:50:31.925Z,93.20
2018-11-14T04:52:59.666Z,93.40
2018-11-14T04:55:27.655Z,93.60
2018-11-14T04:57:56.156Z,93.90
2018-11-14T05:00:24.909Z,93.80
2018-11-14T05:02:52.666Z,93.80
2018-11-14T05:05:21.707Z,93.80
2018-11-14T05:07:49.638Z,93.80
2018-11-14T05:10:20.340Z,94.30
2018-11-14T05:12:48.489Z,94.10
2018-11-14T05:15:18.047Z,94.30
2018-11-14T05:17:46.583Z,94.40
2018-11-14T05:20:16.141Z,94.30
2018-11-14T05:22:44.326Z,94.30
2018-11-14T05:25:13.199Z,94.20
2018-11-14T05:27:41.301Z,94.00
2018-11-14T05:30:12.305Z,94.00
2018-11-14T05:32:40.484Z,93.70
2018-11-14T05:35:09.703Z,93.90
2018-11-14T05:37:38.075Z,94.10
2018-11-14T05:40:07.733Z,94.50
2018-11-14T05:42:36.592Z,95.00
2018-11-14T05:45:30.617Z,95.50
2018-11-14T05:47:59.548Z,95.70
2018-11-14T05:50:27.359Z,95.80
2018-11-14T05:52:55.163Z,95.60
2018-11-14T05:55:22.937Z,95.50
2018-11-14T05:57:50.633Z,95.30
2018-11-14T06:00:34.158Z,95.10
2018-11-14T06:03:03.153Z,94.80
2018-11-14T06:05:30.905Z,94.40
2018-11-14T06:07:58.653Z,94.00
2018-11-14T06:10:26.466Z,93.70
2018-11-14T06:12:54.294Z,93.60
2018-11-14T06:15:22.445Z,93.60
2018-11-14T06:17:51.254Z,93.70
2018-11-14T06:20:20.348Z,93.80
2018-11-14T06:22:48.936Z,94.10
2018-11-14T06:25:23.142Z,94.70
2018-11-14T06:27:52.759Z,94.40
2018-11-14T06:30:21.333Z,93.80
2018-11-14T06:32:49.742Z,93.50
2018-11-14T06:35:18.185Z,93.30
2018-11-14T06:37:46.385Z,92.30
2018-11-14T06:40:14.075Z,92.10
2018-11-14T06:42:41.806Z,92.20
2018-11-14T06:45:12.455Z,92.20
2018-11-14T06:47:41.226Z,92.50
2018-11-14T06:50:09.809Z,93.10
2018-11-14T06:52:37.987Z,93.70
2018-11-14T06:55:07.263Z,94.60
2018-11-14T06:57:35.356Z,95.10
2018-11-14T07:00:04.108Z,95.20
2018-11-14T07:02:38.332Z,95.10
2018-11-14T07:04:59.854Z,94.90
2018-11-14T07:07:27.862Z,94.40
2018-11-14T07:09:55.516Z,94.30
2018-11-14T07:12:23.487Z,93.90
2018-11-14T07:14:51.163Z,93.80
2018-11-14T07:17:19.020Z,93.80
2018-11-14T07:19:47.304Z,93.70
2018-11-14T07:22:15.096Z,93.50
2018-11-14T07:24:42.868Z,92.40
2018-11-14T07:27:10.689Z,90.90
2018-11-14T07:29:38.323Z,90.10
2018-11-14T07:32:06.118Z,90.10
2018-11-14T07:34:33.977Z,88.80
2018-11-14T07:37:01.699Z,86.60
2018-11-14T07:39:29.487Z,86.00
2018-11-14T07:41:57.259Z,85.60
2018-11-14T07:44:24.988Z,87.10
2018-11-14T07:46:53.031Z,88.20
2018-11-14T07:49:20.743Z,88.40
2018-11-14T07:51:48.530Z,90.10
2018-11-14T07:54:16.588Z,89.00
2018-11-14T07:56:44.373Z,88.10
2018-11-14T07:59:12.157Z,87.50
2018-11-14T08:01:39.925Z,83.80
2018-11-14T08:04:07.862Z,84.70
2018-11-14T08:06:35.736Z,82.30
2018-11-14T08:09:05.303Z,79.90
2018-11-14T08:11:33.079Z,78.00
2018-11-14T08:14:00.805Z,74.60
2018-11-14T08:16:28.626Z,73.00
2018-11-14T08:18:56.329Z,71.10
2018-11-14T08:21:23.996Z,68.70
2018-11-14T08:23:51.747Z,66.40
2018-11-14T08:26:19.468Z,64.60
2018-11-14T08:28:47.206Z,60.90
2018-11-14T08:31:15.440Z,60.30
2018-11-14T08:33:43.132Z,59.60
2018-11-14T08:36:10.941Z,58.90
2018-11-14T08:38:39.410Z,58.90
2018-11-14T08:41:07.280Z,56.60
2018-11-14T08:43:34.947Z,54.30
2018-11-14T08:46:02.687Z,52.30
2018-11-14T08:48:30.474Z,49.90
2018-11-14T08:50:58.219Z,49.30
2018-11-14T08:53:25.910Z,49.90
2018-11-14T08:55:53.788Z,50.80
2018-11-14T08:58:21.463Z,51.00
2018-11-14T09:00:49.265Z,50.20
2018-11-14T09:03:17.105Z,51.10
2018-11-14T09:05:44.997Z,52.00
2018-11-14T09:08:12.658Z,52.90
2018-11-14T09:10:40.352Z,54.80
2018-11-14T09:13:14.482Z,56.40
2018-11-14T09:15:42.354Z,58.00
2018-11-14T09:18:10.193Z,60.30
2018-11-14T09:20:37.883Z,62.50
2018-11-14T09:23:05.968Z,64.00
2018-11-14T09:25:33.814Z,64.60
2018-11-14T09:28:02.324Z,66.30
2018-11-14T09:30:30.145Z,66.80
2018-11-14T09:32:58.144Z,65.90
2018-11-14T09:35:26.753Z,62.90
2018-11-14T09:37:55.811Z,60.30
2018-11-14T09:40:24.844Z,56.40
2018-11-14T09:42:52.663Z,51.40
2018-11-14T09:45:23.430Z,44.00
2018-11-14T09:47:51.073Z,37.40
2018-11-14T09:50:20.475Z,30.70
2018-11-14T09:52:49.811Z,29.00
2018-11-14T09:55:17.671Z,26.30
2018-11-14T09:57:45.722Z,25.10
2018-11-14T10:00:16.888Z,23.60
2018-11-14T10:02:46.550Z,22.80
2018-11-14T10:05:16.897Z,21.40
2018-11-14T10:07:45.913Z,21.50
2018-11-14T10:10:16.319Z,19.00
2018-11-14T10:12:44.195Z,17.70
2018-11-14T10:15:14.321Z,16.70
2018-11-14T10:17:43.208Z,16.30
2018-11-14T10:20:12.822Z,15.50
2018-11-14T10:22:41.179Z,15.10
2018-11-14T10:25:09.572Z,14.10
2018-11-14T10:27:38.651Z,14.80
2018-11-14T10:30:12.716Z,15.90
2018-11-14T10:32:41.053Z,15.00
2018-11-14T10:35:09.603Z,14.50
2018-11-14T10:37:38.612Z,14.50
2018-11-14T10:40:08.763Z,14.10
2018-11-14T10:42:36.713Z,13.50
2018-11-14T10:45:05.293Z,13.10
2018-11-14T10:47:33.836Z,12.50
2018-11-14T10:50:01.643Z,12.60
2018-11-14T10:52:30.053Z,12.90
2018-11-14T10:54:57.796Z,13.70
2018-11-14T10:57:25.560Z,13.00
2018-11-14T10:59:53.245Z,12.50
2018-11-14T11:02:26.519Z,12.40
2018-11-14T11:05:00.022Z,13.60
2018-11-14T11:07:33.305Z,14.20
2018-11-14T11:11:07.543Z,14.70
2018-11-14T11:13:41.101Z,15.70
2018-11-14T11:16:14.460Z,17.30
2018-11-14T11:18:42.199Z,18.00
2018-11-14T11:21:10.040Z,19.10
2018-11-14T11:23:37.852Z,19.60
2018-11-14T11:26:05.676Z,20.70
2018-11-14T11:28:33.504Z,21.40
2018-11-14T11:31:01.255Z,22.20
2018-11-14T11:33:29.057Z,22.30
2018-11-14T11:35:57.719Z,22.90
2018-11-14T11:38:25.893Z,23.50
2018-11-14T11:40:54.636Z,24.00
2018-11-14T11:43:22.436Z,24.50
2018-11-14T11:45:50.201Z,24.00
2018-11-14T11:48:18.718Z,24.40
2018-11-14T11:50:46.490Z,24.40
2018-11-14T11:53:14.251Z,25.10
2018-11-14T11:55:42.088Z,25.30
2018-11-14T11:58:09.949Z,25.60
2018-11-14T12:00:37.920Z,25.30
2018-11-14T12:03:05.610Z,25.40
2018-11-14T12:05:33.523Z,24.40
2018-11-14T12:08:01.379Z,24.50
2018-11-14T12:10:29.466Z,24.20
2018-11-14T12:13:04.152Z,23.80
2018-11-14T12:15:31.949Z,24.00
2018-11-14T12:17:59.818Z,23.40
2018-11-14T12:20:27.668Z,23.70
2018-11-14T12:22:55.430Z,23.40
2018-11-14T12:25:23.322Z,24.30
2018-11-14T12:27:51.172Z,24.30
2018-11-14T12:30:19.107Z,23.80
2018-11-14T12:32:46.999Z,23.80
2018-11-14T12:35:15.874Z,23.10
2018-11-14T12:37:43.795Z,23.50
2018-11-14T12:40:12.944Z,24.10
2018-11-14T12:42:41.082Z,24.10
2018-11-14T12:45:11.241Z,23.60
2018-11-14T12:47:39.663Z,23.70
2018-11-14T12:50:08.231Z,23.70
2018-11-14T12:52:36.087Z,23.90
2018-11-14T12:55:04.488Z,24.30
2018-11-14T12:57:36.518Z,24.00
2018-11-14T13:00:05.254Z,24.30
2018-11-14T13:05:08.884Z,24.80
2018-11-14T13:07:37.534Z,25.00
2018-11-14T13:10:07.383Z,25.90
2018-11-14T13:12:35.998Z,26.60
2018-11-14T13:15:03.949Z,28.40
2018-11-14T13:17:32.876Z,29.80
2018-11-14T13:20:00.949Z,31.20
2018-11-14T13:22:29.136Z,34.40
2018-11-14T13:24:56.879Z,36.60
2018-11-14T13:27:24.783Z,39.40
2018-11-14T13:29:52.531Z,41.20
2018-11-14T13:32:20.942Z,43.50
2018-11-14T13:34:48.791Z,44.60
2018-11-14T13:37:16.632Z,46.10
2018-11-14T13:39:45.423Z,47.00
2018-11-14T13:42:13.146Z,48.10
2018-11-14T13:44:41.024Z,49.40
2018-11-14T13:47:08.944Z,49.00
2018-11-14T13:49:36.805Z,50.00
2018-11-14T13:52:04.747Z,51.00
2018-11-14T13:54:32.541Z,51.10
2018-11-14T13:57:00.366Z,51.60
2018-11-14T13:59:28.199Z,51.90
2018-11-14T14:01:55.993Z,51.60
2018-11-14T14:04:24.924Z,52.00
2018-11-14T14:06:52.707Z,52.20
2018-11-14T14:09:20.648Z,51.90
2018-11-14T14:11:48.363Z,53.20
2018-11-14T14:14:18.048Z,53.70
2018-11-14T14:16:46.225Z,53.50
2018-11-14T14:19:14.697Z,54.00
2018-11-14T14:21:42.578Z,54.20
2018-11-14T14:24:10.474Z,54.80
2018-11-14T14:26:38.930Z,55.20
2018-11-14T14:29:06.990Z,55.20
2018-11-14T14:31:35.177Z,55.50
2018-11-14T14:34:03.152Z,56.10
2018-11-14T14:36:31.030Z,56.30
2018-11-14T14:38:59.270Z,56.30
2018-11-14T14:41:27.741Z,55.80
2018-11-14T14:43:55.535Z,56.70
2018-11-14T14:46:23.633Z,56.90
2018-11-14T14:48:51.722Z,57.20
2018-11-14T14:51:19.475Z,57.00
2018-11-14T14:53:47.280Z,57.40
2018-11-14T14:56:15.212Z,57.80
2018-11-14T14:58:42.884Z,58.90
2018-11-14T15:01:11.091Z,59.00
2018-11-14T15:03:39.159Z,58.70
2018-11-14T15:06:06.844Z,58.70
2018-11-14T15:08:34.796Z,58.30
2018-11-14T15:11:02.708Z,58.90
2018-11-14T15:13:31.200Z,58.90
2018-11-14T15:15:58.969Z,59.20
2018-11-14T15:18:26.775Z,59.60
2018-11-14T15:20:54.743Z,60.10
2018-11-14T15:23:22.501Z,60.70
2018-11-14T15:25:50.187Z,61.60
2018-11-14T15:28:18.055Z,62.50
2018-11-14T15:30:46.100Z,63.10
2018-11-14T15:33:14.047Z,63.80
2018-11-14T15:35:41.843Z,64.40
2018-11-14T15:38:09.620Z,65.00
2018-11-14T15:40:37.377Z,65.90
2018-11-14T15:43:05.492Z,67.00
2018-11-14T15:45:33.286Z,68.10
2018-11-14T15:48:01.306Z,68.70
2018-11-14T15:50:30.433Z,69.60
2018-11-14T15:52:58.820Z,70.40
2018-11-14T15:55:26.827Z,70.40
2018-11-14T15:57:54.952Z,70.70
2018-11-14T16:00:25.374Z,71.80
2018-11-14T16:02:53.279Z,72.20
2018-11-14T16:05:22.302Z,72.80
2018-11-14T16:07:51.401Z,73.20
2018-11-14T16:10:20.616Z,73.70
2018-11-14T16:12:48.537Z,75.00
2018-11-14T16:15:18.139Z,75.80
2018-11-14T16:17:46.015Z,76.10
2018-11-14T16:20:15.562Z,76.50
2018-11-14T16:22:43.980Z,76.90
2018-11-14T16:25:13.028Z,77.30
2018-11-14T16:27:41.901Z,78.40
2018-11-14T16:30:13.865Z,79.30
2018-11-14T16:32:42.343Z,79.90
2018-11-14T16:35:10.653Z,80.60
2018-11-14T16:37:38.991Z,81.20
2018-11-14T16:40:09.772Z,81.40
2018-11-14T16:42:38.015Z,81.70
2018-11-14T16:45:06.592Z,82.30
2018-11-14T16:47:34.834Z,82.70
2018-11-14T16:50:02.728Z,82.50
2018-11-14T16:52:30.511Z,83.20
2018-11-14T16:54:58.326Z,83.60
2018-11-14T16:57:26.223Z,84.00
2018-11-14T16:59:54.008Z,84.00
2018-11-14T17:02:21.843Z,84.50
2018-11-14T17:04:50.619Z,84.10
2018-11-14T17:07:18.635Z,83.60
2018-11-14T17:09:46.500Z,83.20
2018-11-14T17:12:14.409Z,83.20
2018-11-14T17:14:42.244Z,83.20
2018-11-14T17:17:10.078Z,82.80
2018-11-14T17:19:37.827Z,83.40
2018-11-14T17:22:05.911Z,83.80
2018-11-14T17:24:33.700Z,83.60
2018-11-14T17:27:01.739Z,83.60
2018-11-14T17:29:29.835Z,83.00
2018-11-14T17:31:57.604Z,83.60
2018-11-14T17:34:25.682Z,84.10
2018-11-14T17:36:53.770Z,84.50
2018-11-14T17:39:21.930Z,84.70
2018-11-14T17:41:49.835Z,84.90
2018-11-14T17:44:17.503Z,85.10
2018-11-14T17:46:45.251Z,85.60
2018-11-14T17:49:13.029Z,85.50
2018-11-14T17:51:40.731Z,86.00
2018-11-14T17:54:08.573Z,86.60
2018-11-14T17:56:36.459Z,87.10
2018-11-14T17:59:04.556Z,88.20
2018-11-14T18:01:32.464Z,88.80
2018-11-14T18:04:00.377Z,89.40
2018-11-14T18:06:29.232Z,89.60
2018-11-14T18:08:56.921Z,89.90
2018-11-14T18:11:24.812Z,90.40
2018-11-14T18:13:52.757Z,90.50
2018-11-14T18:16:21.543Z,90.60
2018-11-14T18:18:49.331Z,90.40
2018-11-14T18:21:18.188Z,90.40
2018-11-14T18:23:45.983Z,90.40
2018-11-14T18:26:13.857Z,90.10
2018-11-14T18:28:42.356Z,90.10
2018-11-14T18:31:10.187Z,90.10
2018-11-14T18:33:39.084Z,90.40
2018-11-14T18:36:06.939Z,90.30
2018-11-14T18:38:35.114Z,90.40
2018-11-14T18:41:03.050Z,90.60
2018-11-14T18:43:30.772Z,90.90
2018-11-14T18:45:58.844Z,91.00
2018-11-14T18:48:26.548Z,91.10
2018-11-14T18:50:54.338Z,91.30
2018-11-14T18:53:22.051Z,91.20
2018-11-14T18:55:49.741Z,91.30
2018-11-14T18:58:17.488Z,91.30
2018-11-14T19:00:45.272Z,91.70
2018-11-14T19:03:13.104Z,92.10
2018-11-14T19:05:40.921Z,92.40
2018-11-14T19:08:09.634Z,92.50
2018-11-14T19:10:38.076Z,92.40
2018-11-14T19:13:05.837Z,92.50
2018-11-14T19:15:35.144Z,92.00
2018-11-14T19:18:03.164Z,92.30
2018-11-14T19:20:32.336Z,92.10
2018-11-14T19:23:00.970Z,91.80
2018-11-14T19:25:30.252Z,91.80
2018-11-14T19:27:58.523Z,91.60
2018-11-14T19:30:27.751Z,91.50
2018-11-14T19:32:56.101Z,91.40
2018-11-14T19:35:23.936Z,91.70
2018-11-14T19:37:52.944Z,92.20
2018-11-14T19:40:22.171Z,92.40
2018-11-14T19:42:51.467Z,93.00
2018-11-14T19:45:25.646Z,93.50
2018-11-14T19:47:53.724Z,93.30
2018-11-14T19:50:22.189Z,93.40
2018-11-14T19:52:50.910Z,94.30
2018-11-14T19:55:20.929Z,94.80
2018-11-14T19:57:49.601Z,95.30
2018-11-14T20:00:20.143Z,95.10
2018-11-14T20:02:47.962Z,95.10
2018-11-14T20:05:16.483Z,95.20
2018-11-14T20:07:44.512Z,94.70
2018-11-14T20:10:18.094Z,94.50
2018-11-14T20:12:46.524Z,94.50
2018-11-14T20:15:16.782Z,94.40
2018-11-14T20:17:45.387Z,94.30
2018-11-14T20:20:14.582Z,94.30
2018-11-14T20:22:42.936Z,94.40
2018-11-14T20:25:10.709Z,94.40
2018-11-14T20:27:39.155Z,94.60
2018-11-14T20:30:09.707Z,94.40
2018-11-14T20:32:37.568Z,94.00
2018-11-14T20:35:06.476Z,94.20
2018-11-14T20:37:34.220Z,94.40
2018-11-14T20:40:01.959Z,94.60
2018-11-14T20:42:29.648Z,94.60
2018-11-14T20:44:57.371Z,94.50
2018-11-14T20:47:25.130Z,94.40
2018-11-14T20:49:52.872Z,94.40
2018-11-14T20:52:20.621Z,94.40
2018-11-14T20:54:49.083Z,94.40
2018-11-14T20:57:16.953Z,94.10
2018-11-14T20:59:44.700Z,93.90
2018-11-14T21:02:12.462Z,94.20
2018-11-14T21:04:40.277Z,94.20
2018-11-14T21:07:08.026Z,94.00
2018-11-14T21:09:36.265Z,93.80
2018-11-14T21:12:04.099Z,93.90
2018-11-14T21:14:31.822Z,93.60
2018-11-14T21:16:59.528Z,93.50
2018-11-14T21:19:30.794Z,93.00
2018-11-14T21:21:58.771Z,93.10
2018-11-14T21:24:26.469Z,93.30
2018-11-14T21:26:54.223Z,93.30
2018-11-14T21:29:21.957Z,93.10
2018-11-14T21:31:49.776Z,93.20
2018-11-14T21:34:17.620Z,93.00
2018-11-14T21:36:45.459Z,93.10
2018-11-14T21:39:14.227Z,92.80
2018-11-14T21:41:42.696Z,92.40
2018-11-14T21:44:10.587Z,92.50
2018-11-14T21:46:38.578Z,92.50
2018-11-14T21:49:10.994Z,92.90
2018-11-14T21:51:38.753Z,92.50
2018-11-14T21:54:06.692Z,92.30
2018-11-14T21:56:34.486Z,92.30
2018-11-14T21:59:02.292Z,92.10
2018-11-14T22:01:30.671Z,92.10
2018-11-14T22:03:58.779Z,92.20
2018-11-14T22:06:26.736Z,92.10
2018-11-14T22:08:54.422Z,92.40
2018-11-14T22:11:22.123Z,92.30
2018-11-14T22:13:49.941Z,92.00
2018-11-14T22:16:17.868Z,91.90
2018-11-14T22:18:46.332Z,91.90
2018-11-14T22:21:14.280Z,91.90
2018-11-14T22:23:42.891Z,91.70
2018-11-14T22:26:10.725Z,91.80
2018-11-14T22:28:38.655Z,92.00
2018-11-14T22:31:06.456Z,91.80
2018-11-14T22:33:34.190Z,91.70
2018-11-14T22:36:01.940Z,91.50
2018-11-14T22:38:29.905Z,91.70
2018-11-14T22:40:57.860Z,91.70
2018-11-14T22:43:25.637Z,91.30
2018-11-14T22:45:53.535Z,91.10
2018-11-14T22:48:21.381Z,90.60
2018-11-14T22:50:49.208Z,90.60
2018-11-14T22:53:18.163Z,90.80
2018-11-14T22:55:45.818Z,90.90
2018-11-14T22:58:14.580Z,90.90
2018-11-14T23:00:43.262Z,90.60
2018-11-14T23:03:11.081Z,90.20
2018-11-14T23:05:38.780Z,90.80
2018-11-14T23:08:06.601Z,90.70
2018-11-14T23:10:35.271Z,90.70
2018-11-14T23:13:03.069Z,90.30
2018-11-14T23:15:30.810Z,90.30
2018-11-14T23:17:58.478Z,90.50
2018-11-14T23:20:26.305Z,90.10
2018-11-14T23:22:54.616Z,90.30
2018-11-14T23:25:22.792Z,90.10
2018-11-14T23:27:51.594Z,89.90
2018-11-14T23:30:20.775Z,90.30
2018-11-14T23:32:49.761Z,90.50
2018-11-14T23:35:20.221Z,90.30
2018-11-14T23:37:49.348Z,90.20
2018-11-14T23:40:17.719Z,90.10
2018-11-14T23:42:45.778Z,90.10
2018-11-14T23:45:14.867Z,90.10
2018-11-14T23:47:43.861Z,90.10
2018-11-14T23:50:14.786Z,90.40
2018-11-14T23:52:44.064Z,90.30
2018-11-14T23:55:12.060Z,90.20
2018-11-14T23:57:40.017Z,89.70
